Aviation Digital Data Service (ADDS)

Output produced by METARs form (1906 UTC 25 June 2017)
found at http://www.aviationweather.gov/adds/metars/
 
MRLB 251900Z 09015KT 9999 SCT040 BKN100 32/22 A2984 NOSIG
MRLB 251700Z 2518/2618 11007KT 9999 FEW040 TX33/2619Z TN22/2611Z
       
MRPV 251900Z 07011KT 9999 FEW040 SCT250 28/14 A3001 NOSIG
MRPV 251700Z 2518/2618 08008KT 9999 FEW035 TX28/2619Z TN18/2611Z 
     TEMPO 2605/2611 27006KT
       
MRLM 251900Z 04008KT 9999 FEW030 BKN240 31/26 A2986
MRLM 251700Z 2518/2618 05005KT 9999 FEW020 SCT120 TX31/2619Z TN23/2611Z 
     BECMG 2603/2605 26005KT 
     BECMG 2614/2618 06007KT
       
MROC 251900Z 11010G20KT 9999 FEW040 BKN250 30/18 A2998 NOSIG
MROC 251700Z 2518/2618 06007KT 9999 FEW035 TX29/2619Z TN19/2611Z 
     TEMPO 2604/2610 26005KT